Terminal Aerodrome Forecast
Issued by NWS

Home | Current Version | Previous Version | Graphics & Text | Print | Product List | Glossary On
Versions: 1 2 3 4 5 6 7 8 9 10 11 12 13 14 15 16 17 18
499
FTUS43 KICT 230522
TAFCNU
TAF
KCNU 230522Z 2306/2406 16005KT P6SM BKN200
     FM231100 36010KT P6SM BKN035
     FM231500 01015G23KT P6SM BKN060
     FM240100 36006KT P6SM SCT200=

USA.gov is the U.S. government's official web portal to all federal, state and local government web resources and services.